sensor_id;sensor_type;location;lat;lon;timestamp;temperature;humidity
29551;DHT22;16488;52.396;10.696;2022-07-15T00:02:05;14.70;99.90
29551;DHT22;16488;52.396;10.696;2022-07-15T00:04:32;14.60;99.90
29551;DHT22;16488;52.396;10.696;2022-07-15T00:06:57;14.60;99.90
29551;DHT22;16488;52.396;10.696;2022-07-15T00:09:23;14.60;99.90
29551;DHT22;16488;52.396;10.696;2022-07-15T00:12:09;14.50;99.90
29551;DHT22;16488;52.396;10.696;2022-07-15T00:14:35;14.50;99.90
29551;DHT22;16488;52.396;10.696;2022-07-15T00:17:00;14.50;99.90
29551;DHT22;16488;52.396;10.696;2022-07-15T00:19:27;14.40;99.90
29551;DHT22;16488;52.396;10.696;2022-07-15T00:21:52;14.30;99.90
29551;DHT22;16488;52.396;10.696;2022-07-15T00:24:18;14.30;99.90
29551;DHT22;16488;52.396;10.696;2022-07-15T00:26:43;14.20;99.90
29551;DHT22;16488;52.396;10.696;2022-07-15T00:29:09;14.30;99.90
29551;DHT22;16488;52.396;10.696;2022-07-15T00:31:36;14.30;99.90
29551;DHT22;16488;52.396;10.696;2022-07-15T00:34:01;14.40;99.90
29551;DHT22;16488;52.396;10.696;2022-07-15T00:36:27;14.40;99.90
29551;DHT22;16488;52.396;10.696;2022-07-15T00:38:53;14.40;99.90
29551;DHT22;16488;52.396;10.696;2022-07-15T00:41:18;14.40;99.90
29551;DHT22;16488;52.396;10.696;2022-07-15T00:43:44;14.50;99.90
29551;DHT22;16488;52.396;10.696;2022-07-15T00:46:09;14.50;99.90
29551;DHT22;16488;52.396;10.696;2022-07-15T00:48:35;14.40;99.90
29551;DHT22;16488;52.396;10.696;2022-07-15T00:51:01;14.40;99.90
29551;DHT22;16488;52.396;10.696;2022-07-15T00:53:28;14.30;99.90
29551;DHT22;16488;52.396;10.696;2022-07-15T00:55:58;14.20;99.90
29551;DHT22;16488;52.396;10.696;2022-07-15T00:58:26;14.20;99.90
29551;DHT22;16488;52.396;10.696;2022-07-15T01:00:53;14.20;99.90
29551;DHT22;16488;52.396;10.696;2022-07-15T01:03:20;14.10;99.90
29551;DHT22;16488;52.396;10.696;2022-07-15T01:05:47;13.80;99.90
29551;DHT22;16488;52.396;10.696;2022-07-15T01:08:13;13.60;99.90
29551;DHT22;16488;52.396;10.696;2022-07-15T01:10:39;13.60;99.90
29551;DHT22;16488;52.396;10.696;2022-07-15T01:13:05;13.50;99.90
29551;DHT22;16488;52.396;10.696;2022-07-15T01:15:31;13.60;99.90
29551;DHT22;16488;52.396;10.696;2022-07-15T01:17:59;13.50;99.90
29551;DHT22;16488;52.396;10.696;2022-07-15T01:20:25;13.50;99.90
29551;DHT22;16488;52.396;10.696;2022-07-15T01:22:50;13.50;99.90
29551;DHT22;16488;52.396;10.696;2022-07-15T01:25:16;13.50;99.90
29551;DHT22;16488;52.396;10.696;2022-07-15T01:27:41;13.50;99.90
29551;DHT22;16488;52.396;10.696;2022-07-15T01:30:07;13.40;99.90
29551;DHT22;16488;52.396;10.696;2022-07-15T01:32:33;13.20;99.90
29551;DHT22;16488;52.396;10.696;2022-07-15T01:34:59;13.20;99.90
29551;DHT22;16488;52.396;10.696;2022-07-15T01:37:25;13.40;99.90
29551;DHT22;16488;52.396;10.696;2022-07-15T01:39:51;13.40;99.90
29551;DHT22;16488;52.396;10.696;2022-07-15T01:42:17;13.40;99.90
29551;DHT22;16488;52.396;10.696;2022-07-15T01:44:42;13.40;99.90
29551;DHT22;16488;52.396;10.696;2022-07-15T01:47:08;13.40;99.90
29551;DHT22;16488;52.396;10.696;2022-07-15T01:49:34;13.50;99.90
29551;DHT22;16488;52.396;10.696;2022-07-15T01:52:01;13.60;99.90
29551;DHT22;16488;52.396;10.696;2022-07-15T01:54:29;13.50;99.90
29551;DHT22;16488;52.396;10.696;2022-07-15T01:56:55;13.60;99.90
29551;DHT22;16488;52.396;10.696;2022-07-15T01:59:21;13.70;99.90
29551;DHT22;16488;52.396;10.696;2022-07-15T02:01:55;13.80;99.90
29551;DHT22;16488;52.396;10.696;2022-07-15T02:04:21;13.80;99.90
29551;DHT22;16488;52.396;10.696;2022-07-15T02:06:47;13.80;99.90
29551;DHT22;16488;52.396;10.696;2022-07-15T02:09:13;13.90;99.90
29551;DHT22;16488;52.396;10.696;2022-07-15T02:11:38;13.90;99.90
29551;DHT22;16488;52.396;10.696;2022-07-15T02:14:05;13.90;99.90
29551;DHT22;16488;52.396;10.696;2022-07-15T02:16:32;13.90;99.90
29551;DHT22;16488;52.396;10.696;2022-07-15T02:18:57;13.90;99.90
29551;DHT22;16488;52.396;10.696;2022-07-15T02:21:24;13.80;99.90
29551;DHT22;16488;52.396;10.696;2022-07-15T02:23:52;13.80;99.90
29551;DHT22;16488;52.396;10.696;2022-07-15T02:26:18;13.60;99.90
29551;DHT22;16488;52.396;10.696;2022-07-15T02:28:43;13.70;99.90
29551;DHT22;16488;52.396;10.696;2022-07-15T02:31:09;13.80;99.90
29551;DHT22;16488;52.396;10.696;2022-07-15T02:33:35;13.80;99.90
29551;DHT22;16488;52.396;10.696;2022-07-15T02:36:00;13.80;99.90
29551;DHT22;16488;52.396;10.696;2022-07-15T02:38:26;13.90;99.90
29551;DHT22;16488;52.396;10.696;2022-07-15T02:40:51;13.70;99.90
29551;DHT22;16488;52.396;10.696;2022-07-15T02:43:17;13.70;99.90
29551;DHT22;16488;52.396;10.696;2022-07-15T02:45:43;13.70;99.90
29551;DHT22;16488;52.396;10.696;2022-07-15T02:48:09;13.60;99.90
29551;DHT22;16488;52.396;10.696;2022-07-15T02:50:35;13.60;99.90
29551;DHT22;16488;52.396;10.696;2022-07-15T02:53:02;13.30;99.90
29551;DHT22;16488;52.396;10.696;2022-07-15T02:55:28;13.10;99.90
29551;DHT22;16488;52.396;10.696;2022-07-15T02:57:54;13.10;99.90
29551;DHT22;16488;52.396;10.696;2022-07-15T03:00:20;13.30;99.90
29551;DHT22;16488;52.396;10.696;2022-07-15T03:02:47;13.40;99.90
29551;DHT22;16488;52.396;10.696;2022-07-15T03:05:13;13.50;99.90
29551;DHT22;16488;52.396;10.696;2022-07-15T03:07:39;13.50;99.90
29551;DHT22;16488;52.396;10.696;2022-07-15T03:10:06;13.50;99.90
29551;DHT22;16488;52.396;10.696;2022-07-15T03:12:32;13.60;99.90
29551;DHT22;16488;52.396;10.696;2022-07-15T03:14:59;13.60;99.90
29551;DHT22;16488;52.396;10.696;2022-07-15T03:17:24;13.80;99.90
29551;DHT22;16488;52.396;10.696;2022-07-15T03:19:50;13.60;99.90
29551;DHT22;16488;52.396;10.696;2022-07-15T03:22:15;13.40;99.90
29551;DHT22;16488;52.396;10.696;2022-07-15T03:24:41;13.20;99.90
29551;DHT22;16488;52.396;10.696;2022-07-15T03:27:07;13.10;99.90
29551;DHT22;16488;52.396;10.696;2022-07-15T03:29:35;13.00;99.90
29551;DHT22;16488;52.396;10.696;2022-07-15T03:32:00;12.90;99.90
29551;DHT22;16488;52.396;10.696;2022-07-15T03:34:27;12.80;99.90
29551;DHT22;16488;52.396;10.696;2022-07-15T03:36:53;12.80;99.90
29551;DHT22;16488;52.396;10.696;2022-07-15T03:39:20;12.70;99.90
29551;DHT22;16488;52.396;10.696;2022-07-15T03:41:46;12.70;99.90
29551;DHT22;16488;52.396;10.696;2022-07-15T03:44:14;12.60;99.90
29551;DHT22;16488;52.396;10.696;2022-07-15T03:46:40;12.60;99.90
29551;DHT22;16488;52.396;10.696;2022-07-15T03:49:06;12.60;99.90
29551;DHT22;16488;52.396;10.696;2022-07-15T03:51:32;12.50;99.90
29551;DHT22;16488;52.396;10.696;2022-07-15T03:54:02;12.60;99.90
29551;DHT22;16488;52.396;10.696;2022-07-15T03:56:29;12.60;99.90
29551;DHT22;16488;52.396;10.696;2022-07-15T03:58:55;12.60;99.90
29551;DHT22;16488;52.396;10.696;2022-07-15T04:01:21;12.50;99.90
29551;DHT22;16488;52.396;10.696;2022-07-15T04:03:52;12.50;99.90
29551;DHT22;16488;52.396;10.696;2022-07-15T04:06:18;12.60;99.90
29551;DHT22;16488;52.396;10.696;2022-07-15T04:08:45;12.60;99.90
29551;DHT22;16488;52.396;10.696;2022-07-15T04:11:11;12.70;99.90
29551;DHT22;16488;52.396;10.696;2022-07-15T04:13:37;12.70;99.90
29551;DHT22;16488;52.396;10.696;2022-07-15T04:16:04;12.70;99.90
29551;DHT22;16488;52.396;10.696;2022-07-15T04:18:30;12.70;99.90
29551;DHT22;16488;52.396;10.696;2022-07-15T04:20:56;12.70;99.90
29551;DHT22;16488;52.396;10.696;2022-07-15T04:23:21;12.80;99.90
29551;DHT22;16488;52.396;10.696;2022-07-15T04:25:48;12.90;99.90
29551;DHT22;16488;52.396;10.696;2022-07-15T04:28:14;12.90;99.90
29551;DHT22;16488;52.396;10.696;2022-07-15T04:30:39;13.00;99.90
29551;DHT22;16488;52.396;10.696;2022-07-15T04:33:05;13.00;99.90
29551;DHT22;16488;52.396;10.696;2022-07-15T04:35:31;13.10;99.90
29551;DHT22;16488;52.396;10.696;2022-07-15T04:37:57;13.20;99.90
29551;DHT22;16488;52.396;10.696;2022-07-15T04:40:23;13.20;99.90
29551;DHT22;16488;52.396;10.696;2022-07-15T04:42:48;13.30;99.90
29551;DHT22;16488;52.396;10.696;2022-07-15T04:45:14;13.30;99.90
29551;DHT22;16488;52.396;10.696;2022-07-15T04:47:39;13.40;99.90
29551;DHT22;16488;52.396;10.696;2022-07-15T04:50:05;13.40;99.90
29551;DHT22;16488;52.396;10.696;2022-07-15T04:52:49;13.40;99.90
29551;DHT22;16488;52.396;10.696;2022-07-15T04:55:15;13.40;99.90
29551;DHT22;16488;52.396;10.696;2022-07-15T04:57:41;13.50;99.90
29551;DHT22;16488;52.396;10.696;2022-07-15T05:00:08;13.50;99.90
29551;DHT22;16488;52.396;10.696;2022-07-15T05:02:34;13.50;99.90
29551;DHT22;16488;52.396;10.696;2022-07-15T05:05:00;13.60;99.90
29551;DHT22;16488;52.396;10.696;2022-07-15T05:07:26;13.60;99.90
29551;DHT22;16488;52.396;10.696;2022-07-15T05:09:52;13.70;99.90
29551;DHT22;16488;52.396;10.696;2022-07-15T05:12:17;13.70;99.90
29551;DHT22;16488;52.396;10.696;2022-07-15T05:14:43;13.70;99.90
29551;DHT22;16488;52.396;10.696;2022-07-15T05:17:09;13.80;99.90
29551;DHT22;16488;52.396;10.696;2022-07-15T05:19:34;13.80;99.90
29551;DHT22;16488;52.396;10.696;2022-07-15T05:22:00;13.80;99.90
29551;DHT22;16488;52.396;10.696;2022-07-15T05:24:26;13.90;99.90
29551;DHT22;16488;52.396;10.696;2022-07-15T05:26:52;13.90;99.90
29551;DHT22;16488;52.396;10.696;2022-07-15T05:29:18;14.00;99.90
29551;DHT22;16488;52.396;10.696;2022-07-15T05:31:47;14.00;99.90
29551;DHT22;16488;52.396;10.696;2022-07-15T05:34:13;14.10;99.90
29551;DHT22;16488;52.396;10.696;2022-07-15T05:36:39;14.20;99.90
29551;DHT22;16488;52.396;10.696;2022-07-15T05:39:04;14.20;99.90
29551;DHT22;16488;52.396;10.696;2022-07-15T05:41:30;14.20;99.90
29551;DHT22;16488;52.396;10.696;2022-07-15T05:43:58;14.30;99.90
29551;DHT22;16488;52.396;10.696;2022-07-15T05:46:23;14.30;99.90
29551;DHT22;16488;52.396;10.696;2022-07-15T05:48:49;14.40;99.90
29551;DHT22;16488;52.396;10.696;2022-07-15T05:51:15;14.40;99.90
29551;DHT22;16488;52.396;10.696;2022-07-15T05:53:40;14.40;99.90
29551;DHT22;16488;52.396;10.696;2022-07-15T05:56:06;14.40;99.90
29551;DHT22;16488;52.396;10.696;2022-07-15T05:58:32;14.50;99.90
29551;DHT22;16488;52.396;10.696;2022-07-15T06:00:57;14.50;99.90
29551;DHT22;16488;52.396;10.696;2022-07-15T06:03:23;14.60;99.90
29551;DHT22;16488;52.396;10.696;2022-07-15T06:05:48;14.60;99.90
29551;DHT22;16488;52.396;10.696;2022-07-15T06:08:14;14.70;99.90
29551;DHT22;16488;52.396;10.696;2022-07-15T06:10:41;14.80;99.90
29551;DHT22;16488;52.396;10.696;2022-07-15T06:13:07;14.80;99.90
29551;DHT22;16488;52.396;10.696;2022-07-15T06:15:33;14.90;99.90
29551;DHT22;16488;52.396;10.696;2022-07-15T06:17:59;14.90;99.90
29551;DHT22;16488;52.396;10.696;2022-07-15T06:20:25;14.90;99.90
29551;DHT22;16488;52.396;10.696;2022-07-15T06:22:50;14.90;99.90
29551;DHT22;16488;52.396;10.696;2022-07-15T06:25:16;15.00;99.90
29551;DHT22;16488;52.396;10.696;2022-07-15T06:27:43;14.90;99.90
29551;DHT22;16488;52.396;10.696;2022-07-15T06:30:09;15.00;99.90
29551;DHT22;16488;52.396;10.696;2022-07-15T06:32:35;15.00;99.90
29551;DHT22;16488;52.396;10.696;2022-07-15T06:35:02;15.10;99.90
29551;DHT22;16488;52.396;10.696;2022-07-15T06:37:27;15.20;99.90
29551;DHT22;16488;52.396;10.696;2022-07-15T06:39:54;15.20;99.90
29551;DHT22;16488;52.396;10.696;2022-07-15T06:42:21;15.20;99.90
29551;DHT22;16488;52.396;10.696;2022-07-15T06:44:46;15.30;99.90
29551;DHT22;16488;52.396;10.696;2022-07-15T06:47:12;15.40;99.90
29551;DHT22;16488;52.396;10.696;2022-07-15T06:49:38;15.40;99.90
29551;DHT22;16488;52.396;10.696;2022-07-15T06:52:04;15.40;99.90
29551;DHT22;16488;52.396;10.696;2022-07-15T06:54:30;15.60;99.90
29551;DHT22;16488;52.396;10.696;2022-07-15T06:56:56;15.60;99.90
29551;DHT22;16488;52.396;10.696;2022-07-15T06:59:22;15.60;99.90
29551;DHT22;16488;52.396;10.696;2022-07-15T07:01:47;15.70;99.90
29551;DHT22;16488;52.396;10.696;2022-07-15T07:04:13;15.70;99.90
29551;DHT22;16488;52.396;10.696;2022-07-15T07:06:38;15.70;99.90
29551;DHT22;16488;52.396;10.696;2022-07-15T07:09:04;15.70;99.90
29551;DHT22;16488;52.396;10.696;2022-07-15T07:11:30;15.80;99.90
29551;DHT22;16488;52.396;10.696;2022-07-15T07:13:56;15.90;99.90
29551;DHT22;16488;52.396;10.696;2022-07-15T07:16:22;15.90;99.90
29551;DHT22;16488;52.396;10.696;2022-07-15T07:18:48;16.00;99.90
29551;DHT22;16488;52.396;10.696;2022-07-15T07:21:16;16.00;99.90
29551;DHT22;16488;52.396;10.696;2022-07-15T07:23:42;16.00;99.90
29551;DHT22;16488;52.396;10.696;2022-07-15T07:26:09;16.10;99.90
29551;DHT22;16488;52.396;10.696;2022-07-15T07:28:35;16.20;99.90
29551;DHT22;16488;52.396;10.696;2022-07-15T07:31:02;16.30;99.90
29551;DHT22;16488;52.396;10.696;2022-07-15T07:33:27;16.40;99.90
29551;DHT22;16488;52.396;10.696;2022-07-15T07:35:53;16.30;99.90
29551;DHT22;16488;52.396;10.696;2022-07-15T07:38:19;16.10;99.90
29551;DHT22;16488;52.396;10.696;2022-07-15T07:40:45;16.20;99.90
29551;DHT22;16488;52.396;10.696;2022-07-15T07:43:14;16.20;99.90
29551;DHT22;16488;52.396;10.696;2022-07-15T07:45:40;16.40;99.90
29551;DHT22;16488;52.396;10.696;2022-07-15T07:48:06;16.50;99.90
29551;DHT22;16488;52.396;10.696;2022-07-15T07:50:32;16.40;99.90
29551;DHT22;16488;52.396;10.696;2022-07-15T07:52:58;16.60;99.90
29551;DHT22;16488;52.396;10.696;2022-07-15T07:55:23;16.60;99.90
29551;DHT22;16488;52.396;10.696;2022-07-15T07:57:57;16.70;99.90
29551;DHT22;16488;52.396;10.696;2022-07-15T08:00:25;16.70;99.90
29551;DHT22;16488;52.396;10.696;2022-07-15T08:02:55;16.90;99.50
29551;DHT22;16488;52.396;10.696;2022-07-15T08:05:21;16.90;98.20
29551;DHT22;16488;52.396;10.696;2022-07-15T08:07:47;16.80;97.80
29551;DHT22;16488;52.396;10.696;2022-07-15T08:10:14;16.80;96.90
29551;DHT22;16488;52.396;10.696;2022-07-15T08:12:40;16.80;96.90
29551;DHT22;16488;52.396;10.696;2022-07-15T08:15:08;16.70;96.10
29551;DHT22;16488;52.396;10.696;2022-07-15T08:17:35;16.80;95.90
29551;DHT22;16488;52.396;10.696;2022-07-15T08:20:00;16.70;96.20
29551;DHT22;16488;52.396;10.696;2022-07-15T08:22:26;16.70;97.50
29551;DHT22;16488;52.396;10.696;2022-07-15T08:24:51;16.70;98.20
29551;DHT22;16488;52.396;10.696;2022-07-15T08:27:17;16.70;97.50
29551;DHT22;16488;52.396;10.696;2022-07-15T08:29:43;16.70;97.00
29551;DHT22;16488;52.396;10.696;2022-07-15T08:32:09;16.70;95.20
29551;DHT22;16488;52.396;10.696;2022-07-15T08:34:35;16.70;95.00
29551;DHT22;16488;52.396;10.696;2022-07-15T08:37:00;16.60;95.60
29551;DHT22;16488;52.396;10.696;2022-07-15T08:39:26;16.70;96.90
29551;DHT22;16488;52.396;10.696;2022-07-15T08:41:52;16.80;97.10
29551;DHT22;16488;52.396;10.696;2022-07-15T08:44:18;16.90;96.90
29551;DHT22;16488;52.396;10.696;2022-07-15T08:46:47;17.00;96.70
29551;DHT22;16488;52.396;10.696;2022-07-15T08:49:17;17.00;96.40
29551;DHT22;16488;52.396;10.696;2022-07-15T08:51:46;17.00;96.30
29551;DHT22;16488;52.396;10.696;2022-07-15T08:54:14;17.00;95.00
29551;DHT22;16488;52.396;10.696;2022-07-15T08:56:40;16.90;95.50
29551;DHT22;16488;52.396;10.696;2022-07-15T08:59:08;16.80;96.10
29551;DHT22;16488;52.396;10.696;2022-07-15T09:01:40;16.80;95.60
29551;DHT22;16488;52.396;10.696;2022-07-15T09:04:06;16.80;94.70
29551;DHT22;16488;52.396;10.696;2022-07-15T09:06:36;16.70;95.00
29551;DHT22;16488;52.396;10.696;2022-07-15T09:09:28;16.70;96.00
29551;DHT22;16488;52.396;10.696;2022-07-15T09:11:56;16.60;96.50
29551;DHT22;16488;52.396;10.696;2022-07-15T09:14:25;16.60;96.60
29551;DHT22;16488;52.396;10.696;2022-07-15T09:20:09;16.50;97.10
29551;DHT22;16488;52.396;10.696;2022-07-15T09:22:54;16.50;97.20
29551;DHT22;16488;52.396;10.696;2022-07-15T09:25:24;16.70;96.80
29551;DHT22;16488;52.396;10.696;2022-07-15T09:27:51;16.70;96.60
29551;DHT22;16488;52.396;10.696;2022-07-15T09:33:23;16.90;97.00
29551;DHT22;16488;52.396;10.696;2022-07-15T09:38:52;17.10;97.00
29551;DHT22;16488;52.396;10.696;2022-07-15T09:41:25;17.10;96.80
29551;DHT22;16488;52.396;10.696;2022-07-15T09:43:53;17.20;96.00
29551;DHT22;16488;52.396;10.696;2022-07-15T09:46:21;17.10;95.80
29551;DHT22;16488;52.396;10.696;2022-07-15T09:48:48;17.00;96.40
29551;DHT22;16488;52.396;10.696;2022-07-15T09:51:14;16.80;97.00
29551;DHT22;16488;52.396;10.696;2022-07-15T09:53:40;16.70;97.50
29551;DHT22;16488;52.396;10.696;2022-07-15T09:56:13;16.60;97.20
29551;DHT22;16488;52.396;10.696;2022-07-15T09:58:41;16.60;97.30
29551;DHT22;16488;52.396;10.696;2022-07-15T10:01:08;16.50;97.60
29551;DHT22;16488;52.396;10.696;2022-07-15T10:03:35;16.40;97.50
29551;DHT22;16488;52.396;10.696;2022-07-15T10:06:01;16.40;97.40
29551;DHT22;16488;52.396;10.696;2022-07-15T10:08:28;16.40;97.70
29551;DHT22;16488;52.396;10.696;2022-07-15T10:10:56;16.60;97.30
29551;DHT22;16488;52.396;10.696;2022-07-15T10:13:31;16.80;95.70
29551;DHT22;16488;52.396;10.696;2022-07-15T10:16:40;16.90;94.20
29551;DHT22;16488;52.396;10.696;2022-07-15T10:19:34;17.00;93.40
29551;DHT22;16488;52.396;10.696;2022-07-15T10:30:25;17.60;93.20
29551;DHT22;16488;52.396;10.696;2022-07-15T10:35:47;17.90;92.80
29551;DHT22;16488;52.396;10.696;2022-07-15T10:38:30;18.10;92.50
29551;DHT22;16488;52.396;10.696;2022-07-15T10:43:51;18.20;90.80
29551;DHT22;16488;52.396;10.696;2022-07-15T10:48:43;18.20;90.90
29551;DHT22;16488;52.396;10.696;2022-07-15T10:51:10;18.10;90.70
29551;DHT22;16488;52.396;10.696;2022-07-15T10:53:47;17.90;90.70
29551;DHT22;16488;52.396;10.696;2022-07-15T10:56:41;17.80;91.70
29551;DHT22;16488;52.396;10.696;2022-07-15T10:59:12;17.90;91.70
29551;DHT22;16488;52.396;10.696;2022-07-15T11:01:50;17.80;91.60
29551;DHT22;16488;52.396;10.696;2022-07-15T11:04:32;17.80;91.30
29551;DHT22;16488;52.396;10.696;2022-07-15T11:14:56;17.70;91.50
29551;DHT22;16488;52.396;10.696;2022-07-15T11:17:23;17.60;91.40
29551;DHT22;16488;52.396;10.696;2022-07-15T11:19:53;17.50;91.80
29551;DHT22;16488;52.396;10.696;2022-07-15T11:22:20;17.50;91.80
29551;DHT22;16488;52.396;10.696;2022-07-15T11:24:46;17.50;92.20
29551;DHT22;16488;52.396;10.696;2022-07-15T11:27:12;17.60;92.30
29551;DHT22;16488;52.396;10.696;2022-07-15T11:29:46;17.70;92.30
29551;DHT22;16488;52.396;10.696;2022-07-15T11:32:14;17.80;92.50
29551;DHT22;16488;52.396;10.696;2022-07-15T11:34:45;17.90;92.30
29551;DHT22;16488;52.396;10.696;2022-07-15T11:37:11;18.00;92.60
29551;DHT22;16488;52.396;10.696;2022-07-15T11:39:38;18.10;92.40
29551;DHT22;16488;52.396;10.696;2022-07-15T11:42:04;18.20;91.90
29551;DHT22;16488;52.396;10.696;2022-07-15T11:44:50;18.40;91.80
29551;DHT22;16488;52.396;10.696;2022-07-15T11:47:16;18.50;91.50
29551;DHT22;16488;52.396;10.696;2022-07-15T11:49:42;18.60;92.20
29551;DHT22;16488;52.396;10.696;2022-07-15T11:52:12;18.50;92.00
29551;DHT22;16488;52.396;10.696;2022-07-15T11:54:39;18.50;91.30
29551;DHT22;16488;52.396;10.696;2022-07-15T11:57:07;18.50;91.00
29551;DHT22;16488;52.396;10.696;2022-07-15T11:59:33;18.50;91.10
29551;DHT22;16488;52.396;10.696;2022-07-15T12:02:10;18.60;90.40
29551;DHT22;16488;52.396;10.696;2022-07-15T12:04:37;18.60;91.10
29551;DHT22;16488;52.396;10.696;2022-07-15T12:07:04;18.60;91.80
29551;DHT22;16488;52.396;10.696;2022-07-15T12:09:44;18.50;91.50
29551;DHT22;16488;52.396;10.696;2022-07-15T12:12:10;18.50;91.50
29551;DHT22;16488;52.396;10.696;2022-07-15T12:14:36;18.50;91.20
29551;DHT22;16488;52.396;10.696;2022-07-15T12:17:03;18.60;90.80
29551;DHT22;16488;52.396;10.696;2022-07-15T12:19:30;18.70;90.50
29551;DHT22;16488;52.396;10.696;2022-07-15T12:22:00;18.90;89.10
29551;DHT22;16488;52.396;10.696;2022-07-15T12:24:37;18.80;88.90
29551;DHT22;16488;52.396;10.696;2022-07-15T12:27:04;18.90;90.00
29551;DHT22;16488;52.396;10.696;2022-07-15T12:29:32;19.00;89.40
29551;DHT22;16488;52.396;10.696;2022-07-15T12:32:08;19.30;88.60
29551;DHT22;16488;52.396;10.696;2022-07-15T12:37:21;19.70;85.20
29551;DHT22;16488;52.396;10.696;2022-07-15T12:39:56;20.10;84.70
29551;DHT22;16488;52.396;10.696;2022-07-15T12:42:22;20.10;83.50
29551;DHT22;16488;52.396;10.696;2022-07-15T12:45:08;19.90;82.80
29551;DHT22;16488;52.396;10.696;2022-07-15T12:47:36;20.00;83.90
29551;DHT22;16488;52.396;10.696;2022-07-15T12:50:03;20.00;83.80
29551;DHT22;16488;52.396;10.696;2022-07-15T13:30:18;18.90;85.90
29551;DHT22;16488;52.396;10.696;2022-07-15T13:32:44;18.80;87.00
29551;DHT22;16488;52.396;10.696;2022-07-15T13:35:11;18.80;87.00
29551;DHT22;16488;52.396;10.696;2022-07-15T13:37:37;18.80;88.10
29551;DHT22;16488;52.396;10.696;2022-07-15T13:40:04;18.90;86.30
29551;DHT22;16488;52.396;10.696;2022-07-15T13:42:29;19.00;86.80
29551;DHT22;16488;52.396;10.696;2022-07-15T13:44:55;19.20;86.10
29551;DHT22;16488;52.396;10.696;2022-07-15T13:47:22;19.30;85.30
29551;DHT22;16488;52.396;10.696;2022-07-15T13:49:48;19.30;86.00
29551;DHT22;16488;52.396;10.696;2022-07-15T13:52:32;19.30;86.50
29551;DHT22;16488;52.396;10.696;2022-07-15T13:54:57;19.30;87.00
29551;DHT22;16488;52.396;10.696;2022-07-15T13:57:23;19.20;86.60
29551;DHT22;16488;52.396;10.696;2022-07-15T13:59:48;19.20;85.80
29551;DHT22;16488;52.396;10.696;2022-07-15T14:02:14;19.10;85.20
29551;DHT22;16488;52.396;10.696;2022-07-15T14:04:40;19.00;85.90
29551;DHT22;16488;52.396;10.696;2022-07-15T14:07:05;19.00;85.90
29551;DHT22;16488;52.396;10.696;2022-07-15T14:09:32;18.90;86.60
29551;DHT22;16488;52.396;10.696;2022-07-15T14:11:58;18.80;86.80
29551;DHT22;16488;52.396;10.696;2022-07-15T14:14:24;18.80;87.00
29551;DHT22;16488;52.396;10.696;2022-07-15T14:16:49;18.80;86.90
29551;DHT22;16488;52.396;10.696;2022-07-15T14:19:16;18.70;87.60
29551;DHT22;16488;52.396;10.696;2022-07-15T14:21:42;18.70;88.50
29551;DHT22;16488;52.396;10.696;2022-07-15T14:24:07;18.60;89.20
29551;DHT22;16488;52.396;10.696;2022-07-15T14:26:33;18.60;90.40
29551;DHT22;16488;52.396;10.696;2022-07-15T14:28:59;18.50;91.10
29551;DHT22;16488;52.396;10.696;2022-07-15T14:31:24;18.50;91.90
29551;DHT22;16488;52.396;10.696;2022-07-15T14:33:50;18.50;92.20
29551;DHT22;16488;52.396;10.696;2022-07-15T14:36:16;18.50;92.10
29551;DHT22;16488;52.396;10.696;2022-07-15T14:38:41;18.50;92.30
29551;DHT22;16488;52.396;10.696;2022-07-15T14:41:07;18.50;92.20
29551;DHT22;16488;52.396;10.696;2022-07-15T14:43:33;18.60;92.70
29551;DHT22;16488;52.396;10.696;2022-07-15T14:45:59;18.60;91.90
29551;DHT22;16488;52.396;10.696;2022-07-15T14:48:26;18.50;92.40
29551;DHT22;16488;52.396;10.696;2022-07-15T14:50:53;18.50;92.90
29551;DHT22;16488;52.396;10.696;2022-07-15T14:53:19;18.50;93.00
29551;DHT22;16488;52.396;10.696;2022-07-15T14:55:45;18.50;93.20
29551;DHT22;16488;52.396;10.696;2022-07-15T14:58:11;18.60;93.00
29551;DHT22;16488;52.396;10.696;2022-07-15T15:00:40;18.60;92.50
29551;DHT22;16488;52.396;10.696;2022-07-15T15:03:06;18.70;92.50
29551;DHT22;16488;52.396;10.696;2022-07-15T15:05:31;18.70;92.10
29551;DHT22;16488;52.396;10.696;2022-07-15T15:07:57;18.70;92.30
29551;DHT22;16488;52.396;10.696;2022-07-15T15:10:23;18.70;92.40
29551;DHT22;16488;52.396;10.696;2022-07-15T15:12:48;18.70;92.20
29551;DHT22;16488;52.396;10.696;2022-07-15T15:15:14;18.80;92.40
29551;DHT22;16488;52.396;10.696;2022-07-15T15:17:40;18.70;91.70
29551;DHT22;16488;52.396;10.696;2022-07-15T15:20:06;18.70;91.70
29551;DHT22;16488;52.396;10.696;2022-07-15T15:22:33;18.60;91.60
29551;DHT22;16488;52.396;10.696;2022-07-15T15:25:00;18.60;91.90
29551;DHT22;16488;52.396;10.696;2022-07-15T15:27:25;18.60;92.30
29551;DHT22;16488;52.396;10.696;2022-07-15T15:29:51;18.60;92.50
29551;DHT22;16488;52.396;10.696;2022-07-15T15:32:17;18.50;91.70
29551;DHT22;16488;52.396;10.696;2022-07-15T15:34:43;18.60;91.70
29551;DHT22;16488;52.396;10.696;2022-07-15T15:37:10;18.70;91.60
29551;DHT22;16488;52.396;10.696;2022-07-15T15:39:36;18.80;91.90
29551;DHT22;16488;52.396;10.696;2022-07-15T15:42:02;18.90;91.30
29551;DHT22;16488;52.396;10.696;2022-07-15T15:44:28;18.90;91.10
29551;DHT22;16488;52.396;10.696;2022-07-15T15:46:54;18.90;91.00
29551;DHT22;16488;52.396;10.696;2022-07-15T15:49:20;19.10;90.70
29551;DHT22;16488;52.396;10.696;2022-07-15T15:51:45;19.00;89.70
29551;DHT22;16488;52.396;10.696;2022-07-15T15:54:11;18.80;90.40
29551;DHT22;16488;52.396;10.696;2022-07-15T15:56:37;18.80;90.10
29551;DHT22;16488;52.396;10.696;2022-07-15T15:59:03;18.80;90.60
29551;DHT22;16488;52.396;10.696;2022-07-15T16:01:29;18.90;90.90
29551;DHT22;16488;52.396;10.696;2022-07-15T16:03:55;19.10;90.50
29551;DHT22;16488;52.396;10.696;2022-07-15T16:06:21;19.40;88.70
29551;DHT22;16488;52.396;10.696;2022-07-15T16:08:46;19.50;87.20
29551;DHT22;16488;52.396;10.696;2022-07-15T16:11:13;19.60;85.80
29551;DHT22;16488;52.396;10.696;2022-07-15T16:13:39;19.60;85.10
29551;DHT22;16488;52.396;10.696;2022-07-15T16:16:04;19.50;87.30
29551;DHT22;16488;52.396;10.696;2022-07-15T16:18:30;19.30;88.40
29551;DHT22;16488;52.396;10.696;2022-07-15T16:20:56;19.30;88.60
29551;DHT22;16488;52.396;10.696;2022-07-15T16:23:21;19.30;88.00
29551;DHT22;16488;52.396;10.696;2022-07-15T16:25:47;19.40;87.10
29551;DHT22;16488;52.396;10.696;2022-07-15T16:28:13;19.50;86.60
29551;DHT22;16488;52.396;10.696;2022-07-15T16:30:42;19.50;86.10